createdAt,value
2017-11-25T00:00:04.234Z,0
2017-11-25T00:05:03.376Z,0
2017-11-25T00:10:02.858Z,1
2017-11-25T00:15:03.458Z,2
2017-11-25T00:20:02.896Z,2
2017-11-25T00:25:03.352Z,1
2017-11-25T00:30:02.871Z,2
2017-11-25T00:35:03.521Z,0
2017-11-25T00:40:03.017Z,0
2017-11-25T00:45:03.588Z,0
2017-11-25T00:50:03.185Z,0
2017-11-25T00:55:02.845Z,0
2017-11-25T01:00:03.336Z,0
2017-11-25T01:05:03.544Z,0
2017-11-25T01:10:03.111Z,2
2017-11-25T01:15:02.747Z,0
2017-11-25T01:20:03.359Z,0
2017-11-25T01:25:03.109Z,0
2017-11-25T01:30:02.685Z,0
2017-11-25T01:35:03.309Z,0
2017-11-25T01:40:02.941Z,1
2017-11-25T01:45:03.486Z,0
2017-11-25T01:50:03.260Z,0
2017-11-25T01:55:02.758Z,0
2017-11-25T02:00:03.500Z,0
2017-11-25T02:05:03.052Z,0
2017-11-25T02:10:03.561Z,0
2017-11-25T02:15:03.213Z,0
2017-11-25T02:20:02.912Z,0
2017-11-25T02:25:03.519Z,0
2017-11-25T02:30:03.085Z,0
2017-11-25T02:35:02.648Z,0
2017-11-25T02:40:03.230Z,0
2017-11-25T02:45:02.864Z,0
2017-11-25T02:50:03.466Z,0
2017-11-25T02:55:02.947Z,0
2017-11-25T03:00:03.419Z,0
2017-11-25T03:05:03.207Z,0
2017-11-25T03:10:02.890Z,0
2017-11-25T03:15:03.491Z,0
2017-11-25T03:20:03.274Z,0
2017-11-25T03:25:02.785Z,1
2017-11-25T03:30:03.491Z,0
2017-11-25T03:35:03.189Z,0
2017-11-25T03:40:02.696Z,0
2017-11-25T03:45:03.489Z,0
2017-11-25T03:50:03.171Z,0
2017-11-25T03:55:02.801Z,0
2017-11-25T04:00:03.449Z,0
2017-11-25T04:05:03.242Z,0
2017-11-25T04:10:02.989Z,0
2017-11-25T04:15:03.955Z,0
2017-11-25T04:20:02.901Z,0
2017-11-25T04:25:03.595Z,0
2017-11-25T04:30:03.204Z,0
2017-11-25T04:35:02.850Z,0
2017-11-25T04:40:03.594Z,0
2017-11-25T04:45:03.385Z,0
2017-11-25T04:50:03.075Z,0
2017-11-25T04:55:02.711Z,0
2017-11-25T05:00:03.589Z,0
2017-11-25T05:05:03.381Z,0
2017-11-25T05:10:03.000Z,0
2017-11-25T05:15:02.718Z,0
2017-11-25T05:20:03.650Z,0
2017-11-25T05:25:03.399Z,0
2017-11-25T05:30:02.810Z,0
2017-11-25T05:35:03.417Z,0
2017-11-25T05:40:03.127Z,0
2017-11-25T05:45:02.754Z,0
2017-11-25T05:50:03.435Z,0
2017-11-25T05:55:03.293Z,0
2017-11-25T06:00:02.946Z,0
2017-11-25T06:05:03.531Z,0
2017-11-25T06:10:03.358Z,0
2017-11-25T06:15:02.936Z,0
2017-11-25T06:20:03.541Z,0
2017-11-25T06:25:03.155Z,0
2017-11-25T06:30:02.891Z,0
2017-11-25T06:35:02.773Z,0
2017-11-25T06:40:03.543Z,0
2017-11-25T06:45:02.858Z,0
2017-11-25T06:50:03.324Z,1
2017-11-25T06:55:02.979Z,0
2017-11-25T07:00:02.700Z,0
2017-11-25T07:05:03.534Z,0
2017-11-25T07:10:03.282Z,0
2017-11-25T07:15:03.052Z,1
2017-11-25T07:20:03.090Z,0
2017-11-25T07:25:02.773Z,0
2017-11-25T07:30:03.396Z,1
2017-11-25T07:35:03.085Z,0
2017-11-25T07:40:02.905Z,1
2017-11-25T07:45:03.550Z,0
2017-11-25T07:50:03.332Z,0
2017-11-25T07:55:02.931Z,0
2017-11-25T08:00:03.834Z,0
2017-11-25T08:05:03.669Z,0
2017-11-25T08:10:03.331Z,0
2017-11-25T08:15:02.805Z,0
2017-11-25T08:20:03.305Z,0
2017-11-25T08:25:02.743Z,2
2017-11-25T08:30:03.337Z,0
2017-11-25T08:35:02.794Z,0
2017-11-25T08:40:03.285Z,0
2017-11-25T08:45:02.872Z,0
2017-11-25T08:50:03.479Z,1
2017-11-25T08:55:02.946Z,2
2017-11-25T09:00:03.551Z,0
2017-11-25T09:05:03.113Z,0
2017-11-25T09:10:03.620Z,0
2017-11-25T09:15:03.232Z,0
2017-11-25T09:20:02.796Z,2
2017-11-25T09:25:03.373Z,1
2017-11-25T09:30:03.126Z,2
2017-11-25T09:35:02.720Z,2
2017-11-25T09:40:03.202Z,0
2017-11-25T09:45:02.747Z,1
2017-11-25T09:50:03.305Z,2
2017-11-25T09:55:02.758Z,2
2017-11-25T10:00:03.350Z,2
2017-11-25T10:05:02.898Z,3
2017-11-25T10:10:03.578Z,3
2017-11-25T10:15:03.126Z,4
2017-11-25T10:20:02.658Z,2
2017-11-25T10:25:03.295Z,4
2017-11-25T10:30:02.975Z,6
2017-11-25T10:35:03.392Z,3
2017-11-25T10:40:03.014Z,3
2017-11-25T10:45:03.453Z,6
2017-11-25T10:50:03.028Z,2
2017-11-25T10:55:03.480Z,5
2017-11-25T11:00:03.032Z,4
2017-11-25T11:05:02.665Z,4
2017-11-25T11:10:03.341Z,6
2017-11-25T11:15:02.929Z,4
2017-11-25T11:20:03.497Z,5
2017-11-25T11:25:03.084Z,3
2017-11-25T11:30:03.568Z,2
2017-11-25T11:35:03.099Z,7
2017-11-25T11:40:03.595Z,5
2017-11-25T11:45:03.246Z,6
2017-11-25T11:50:02.872Z,3
2017-11-25T11:55:03.362Z,5
2017-11-25T12:00:02.937Z,2
2017-11-25T12:05:03.384Z,4
2017-11-25T12:10:02.876Z,4
2017-11-25T12:15:03.324Z,6
2017-11-25T12:20:02.824Z,5
2017-11-25T12:25:03.449Z,3
2017-11-25T12:35:03.483Z,8
2017-11-25T12:40:03.142Z,3
2017-11-25T12:45:03.612Z,1
2017-11-25T12:50:03.088Z,2
2017-11-25T12:55:02.668Z,2
2017-11-25T13:00:03.231Z,4
2017-11-25T13:05:02.713Z,4
2017-11-25T13:10:03.400Z,6
2017-11-25T13:15:02.975Z,4
2017-11-25T13:20:03.574Z,3
2017-11-25T13:25:03.163Z,3
2017-11-25T13:30:02.694Z,3
2017-11-25T13:35:03.323Z,2
2017-11-25T13:40:02.793Z,2
2017-11-25T13:45:03.356Z,4
2017-11-25T13:50:03.022Z,2
2017-11-25T13:55:03.550Z,3
2017-11-25T14:00:03.019Z,4
2017-11-25T14:05:03.523Z,0
2017-11-25T14:10:03.032Z,4
2017-11-25T14:15:03.590Z,1
2017-11-25T14:20:03.002Z,2
2017-11-25T14:25:03.608Z,0
2017-11-25T14:30:03.220Z,3
2017-11-25T14:35:02.924Z,4
2017-11-25T14:40:03.419Z,3
2017-11-25T14:45:02.865Z,4
2017-11-25T14:50:03.514Z,3
2017-11-25T14:55:03.135Z,4
2017-11-25T15:00:02.716Z,6
2017-11-25T15:05:03.224Z,6
2017-11-25T15:10:02.781Z,7
2017-11-25T15:15:03.278Z,3
2017-11-25T15:20:02.845Z,7
2017-11-25T15:25:03.430Z,6
2017-11-25T15:30:02.952Z,3
2017-11-25T15:35:03.592Z,3
2017-11-25T15:40:03.223Z,3
2017-11-25T15:45:02.817Z,7
2017-11-25T15:50:03.301Z,5
2017-11-25T15:55:02.900Z,3
2017-11-25T16:00:02.683Z,3
2017-11-25T16:05:03.188Z,0
2017-11-25T16:10:02.746Z,0
2017-11-25T16:15:03.258Z,3
2017-11-25T16:20:02.858Z,1
2017-11-25T16:25:03.494Z,0
2017-11-25T16:30:03.041Z,0
2017-11-25T16:35:02.721Z,1
2017-11-25T16:40:03.285Z,0
2017-11-25T16:45:02.762Z,2
2017-11-25T16:50:03.386Z,3
2017-11-25T16:55:02.999Z,3
2017-11-25T17:00:03.552Z,0
2017-11-25T17:05:03.061Z,0
2017-11-25T17:10:03.598Z,0
2017-11-25T17:15:03.171Z,0
2017-11-25T17:20:02.743Z,0
2017-11-25T17:25:03.386Z,0
2017-11-25T17:30:03.018Z,0
2017-11-25T17:35:02.674Z,2
2017-11-25T17:40:03.292Z,3
2017-11-25T17:45:02.934Z,5
2017-11-25T17:50:03.758Z,5
2017-11-25T17:55:03.191Z,0
2017-11-25T18:00:02.847Z,5
2017-11-25T18:10:03.257Z,2
2017-11-25T18:15:02.708Z,2
2017-11-25T18:20:03.282Z,1
2017-11-25T18:30:03.569Z,2
2017-11-25T18:35:03.205Z,4
2017-11-25T18:40:02.775Z,3
2017-11-25T18:45:03.201Z,3
2017-11-25T18:50:02.732Z,3
2017-11-25T18:55:03.196Z,2
2017-11-25T19:00:02.830Z,0
2017-11-25T19:05:03.333Z,4
2017-11-25T19:10:02.797Z,5
2017-11-25T19:15:03.535Z,7
2017-11-25T19:20:03.127Z,2
2017-11-25T19:25:02.651Z,3
2017-11-25T19:30:03.285Z,3
2017-11-25T19:35:02.948Z,4
2017-11-25T19:40:03.542Z,5
2017-11-25T19:50:02.784Z,3
2017-11-25T19:55:03.268Z,7
2017-11-25T20:00:02.922Z,4
2017-11-25T20:05:03.588Z,3
2017-11-25T20:10:03.094Z,3
2017-11-25T20:15:02.733Z,4
2017-11-25T20:20:03.316Z,2
2017-11-25T20:25:02.817Z,7
2017-11-25T20:30:03.473Z,3
2017-11-25T20:35:03.123Z,4
2017-11-25T20:40:02.653Z,3
2017-11-25T20:45:03.244Z,2
2017-11-25T20:50:02.722Z,7
2017-11-25T20:55:03.388Z,5
2017-11-25T21:00:02.996Z,5
2017-11-25T21:05:03.501Z,3
2017-11-25T21:10:03.100Z,3
2017-11-25T21:15:03.609Z,3
2017-11-25T21:20:03.230Z,4
2017-11-25T21:25:02.648Z,4
2017-11-25T21:30:03.110Z,1
2017-11-25T21:35:02.687Z,3
2017-11-25T21:40:03.376Z,1
2017-11-25T21:45:02.897Z,5
2017-11-25T21:50:03.545Z,3
2017-11-25T21:55:03.025Z,2
2017-11-25T22:00:03.509Z,2
2017-11-25T22:05:03.021Z,2
2017-11-25T22:10:03.564Z,0
2017-11-25T22:15:03.242Z,4
2017-11-25T22:20:02.682Z,3
2017-11-25T22:25:03.145Z,5
2017-11-25T22:30:02.772Z,5
2017-11-25T22:35:03.294Z,4
2017-11-25T22:40:02.757Z,8
2017-11-25T22:45:03.250Z,4
2017-11-25T22:50:02.869Z,7
2017-11-25T22:55:03.307Z,7
2017-11-25T23:00:03.000Z,3
2017-11-25T23:05:03.439Z,4
2017-11-25T23:10:03.063Z,6
2017-11-25T23:15:03.586Z,5
2017-11-25T23:20:03.296Z,5
2017-11-25T23:25:03.004Z,3
2017-11-25T23:30:02.639Z,5
2017-11-25T23:35:03.314Z,5
2017-11-25T23:40:02.786Z,6
2017-11-25T23:45:03.318Z,6
2017-11-25T23:50:02.735Z,9
2017-11-25T23:55:03.122Z,6
